createdAt,value
2019-02-25T00:01:30.076Z,6
2019-02-25T00:11:27.540Z,6
2019-02-25T00:21:27.915Z,6
2019-02-25T00:31:30.128Z,6
2019-02-25T00:41:28.425Z,6
2019-02-25T00:51:27.223Z,6
2019-02-25T01:01:30.578Z,6
2019-02-25T01:11:28.006Z,6
2019-02-25T01:21:30.393Z,6
2019-02-25T01:31:27.309Z,6
2019-02-25T01:41:28.959Z,6
2019-02-25T01:51:33.910Z,6
2019-02-25T02:01:33.031Z,6
2019-02-25T02:11:27.557Z,6
2019-02-25T02:21:32.829Z,6
2019-02-25T02:31:32.825Z,6
2019-02-25T02:41:28.174Z,6
2019-02-25T02:51:29.198Z,6
2019-02-25T03:01:28.033Z,6
2019-02-25T03:11:27.566Z,6
2019-02-25T03:21:27.551Z,6
2019-02-25T03:31:27.244Z,6
2019-02-25T03:41:27.824Z,6
2019-02-25T03:51:27.729Z,6
2019-02-25T04:01:30.016Z,6
2019-02-25T04:11:27.768Z,6
2019-02-25T04:21:27.573Z,6
2019-02-25T04:31:28.948Z,6
2019-02-25T04:41:27.624Z,6
2019-02-25T04:51:27.433Z,6
2019-02-25T05:01:27.076Z,6
2019-02-25T05:11:27.682Z,6
2019-02-25T05:21:27.739Z,6
2019-02-25T05:31:27.785Z,5
2019-02-25T05:41:28.866Z,6
2019-02-25T05:51:28.702Z,6
2019-02-25T06:01:27.551Z,6
2019-02-25T06:11:27.804Z,6
2019-02-25T06:21:27.880Z,6
2019-02-25T06:31:27.504Z,6
2019-02-25T06:41:27.730Z,6
2019-02-25T06:51:29.300Z,6
2019-02-25T07:01:27.914Z,6
2019-02-25T07:11:29.525Z,6
2019-02-25T07:21:28.166Z,6
2019-02-25T07:31:27.852Z,6
2019-02-25T07:41:27.377Z,7
2019-02-25T07:51:27.264Z,7
2019-02-25T08:01:28.220Z,7
2019-02-25T08:11:29.159Z,7
2019-02-25T08:21:28.314Z,7
2019-02-25T08:31:27.121Z,7
2019-02-25T08:41:27.968Z,8
2019-02-25T08:51:28.063Z,8
2019-02-25T09:01:27.719Z,8
2019-02-25T09:11:27.925Z,8
2019-02-25T09:21:33.053Z,8
2019-02-25T09:31:27.823Z,9
2019-02-25T09:41:31.445Z,9
2019-02-25T09:51:27.671Z,9
2019-02-25T10:01:27.218Z,9
2019-02-25T10:11:29.042Z,9
2019-02-25T10:21:28.547Z,10
2019-02-25T10:31:27.108Z,9
2019-02-25T10:41:29.139Z,10
2019-02-25T10:51:27.823Z,10
2019-02-25T11:01:27.545Z,10
2019-02-25T11:11:28.398Z,10
2019-02-25T11:21:27.682Z,10
2019-02-25T11:31:30.364Z,11
2019-02-25T11:41:31.714Z,11
2019-02-25T11:51:28.623Z,11
2019-02-25T12:01:27.540Z,11
2019-02-25T12:11:28.140Z,11
2019-02-25T12:21:28.998Z,12
2019-02-25T12:31:27.680Z,11
2019-02-25T12:41:28.640Z,12
2019-02-25T12:51:27.251Z,12
2019-02-25T13:01:43.670Z,12
2019-02-25T13:11:28.511Z,12
2019-02-25T13:21:27.624Z,12
2019-02-25T13:31:28.998Z,12
2019-02-25T13:41:28.066Z,11
2019-02-25T13:51:28.287Z,11
2019-02-25T14:01:30.375Z,12
2019-02-25T14:11:27.251Z,12
2019-02-25T14:21:28.916Z,12
2019-02-25T14:31:31.130Z,12
2019-02-25T14:41:30.140Z,12
2019-02-25T14:51:27.733Z,11
2019-02-25T15:01:30.504Z,12
2019-02-25T15:11:27.432Z,11
2019-02-25T15:21:27.498Z,11
2019-02-25T15:31:27.477Z,11
2019-02-25T15:41:32.697Z,11
2019-02-25T15:51:41.511Z,11
2019-02-25T16:01:28.139Z,11
2019-02-25T16:11:33.422Z,11
2019-02-25T16:21:29.591Z,11
2019-02-25T16:31:34.946Z,11
2019-02-25T16:41:52.750Z,11
2019-02-25T16:51:38.407Z,10
2019-02-25T17:02:38.381Z,10
2019-02-25T17:11:30.703Z,10
2019-02-25T17:21:30.180Z,10
2019-02-25T17:31:40.810Z,10
2019-02-25T17:41:30.779Z,10
2019-02-25T17:51:28.894Z,10
2019-02-25T18:01:33.898Z,10
2019-02-25T18:11:33.279Z,9
2019-02-25T18:21:35.430Z,9
2019-02-25T18:31:29.786Z,9
2019-02-25T18:42:06.183Z,9
2019-02-25T18:51:43.668Z,9
2019-02-25T19:01:28.340Z,9
2019-02-25T19:11:29.400Z,9
2019-02-25T19:21:34.037Z,9
2019-02-25T19:31:28.369Z,9
2019-02-25T19:51:31.076Z,9
2019-02-25T20:01:29.451Z,9
2019-02-25T20:11:29.859Z,9
2019-02-25T20:21:31.690Z,9
2019-02-25T20:31:27.859Z,9
2019-02-25T20:41:38.165Z,9
2019-02-25T20:51:37.114Z,9
2019-02-25T21:02:51.745Z,9
2019-02-25T21:11:32.989Z,9
2019-02-25T21:31:54.145Z,9
2019-02-25T21:41:29.526Z,9
2019-02-25T21:51:36.861Z,9
2019-02-25T22:01:27.224Z,9
2019-02-25T22:11:27.911Z,8
2019-02-25T22:21:33.309Z,9
2019-02-25T22:31:27.277Z,8
2019-02-25T22:41:33.353Z,9
2019-02-25T22:51:33.127Z,8
2019-02-25T23:01:28.493Z,8
2019-02-25T23:11:28.490Z,8
2019-02-25T23:21:40.954Z,8
2019-02-25T23:31:31.467Z,8
2019-02-25T23:41:38.862Z,9
2019-02-25T23:51:28.198Z,9
